Aérodrome :
LOGIN :

S'inscrire | Disclaimer

   EN    FR    IT 

 










Légende :    VFR   VFR Marginal   IFR   IFR Intensif   IFR Très Intensif
Visi : 
Plafond : 
>= 8 km
>= 3000ft
5 à 8 km
1000 à 3000 ft
1500m à 5 km
500 à 1000 ft
800 à 1500m
200 à 500 ft
< 800m
< 200 ft
Symboles :   Orages  Brouillard  Fortes neiges  Fortes précipitations  Vent > 20 kt
SIGMETs :   Divers  Orages  Givrage  Turbulence  Onde Orograph.  Cendres Volcan.






- Altitude de l'aérodrome : 844 ft
- Code IATA : OSR


LKMT - Ostrava-Mosnov

DERNIER METAR :
  • 190230Z 24005KT CAVOK 18/15 Q1013 NOSIG

METARs EXPIRÉS :
  • 190200Z 24003KT CAVOK 17/15 Q1013 NOSIG
  • 190130Z 23003KT 200V270 CAVOK 17/15 Q1013 NOSIG
  • 190100Z 23004KT CAVOK 18/15 Q1013 NOSIG
  • 190030Z 22003KT CAVOK 19/15 Q1013 NOSIG
  • 190000Z 20003KT 180V240 CAVOK 19/16 Q1013 NOSIG
  • 182330Z 22003KT 190V250 CAVOK 18/16 Q1014 NOSIG
  • 182300Z 22004KT CAVOK 19/16 Q1014 NOSIG
  • 182230Z 20004KT CAVOK 20/16 Q1014 NOSIG
  • 182200Z 21004KT CAVOK 20/15 Q1014 NOSIG

TAF TAF LKMT
Valide du 19 à 00h jusqu'au 20 à 00h UTC


182300Z 1900/2000 22008KT CAVOK
BECMG 1916/1918 36008KT 9999 BKN040
TEMPO 1918/1922 03012G30KT 2000 TSRA SCT025CB
PROB30
TEMPO 1918/1920 TSGR SCT020CB



MET'MAP, la Météo Aéronautique d'un coup d'oeil ! - Copyright ORBIFLY Décembre 2007 - Disclaimer

ORBIFLY MET'MAP TEAM :

Programmation & Développement : Alexandra Zaïnal
Sur une idée originale de : Baudouin d'Aumeries
Soutien technique & logistique : Manuel Goepfert
Assistance : Marc-Olivier Méhu




SOURCES & CREDITS :

   NOAA